createdAt,value
2019-03-20T00:00:56.393Z,70.18
2019-03-20T00:03:27.024Z,70.55
2019-03-20T00:05:58.918Z,71.01
2019-03-20T00:08:29.876Z,71.61
2019-03-20T00:11:00.734Z,71.84
2019-03-20T00:13:31.575Z,71.85
2019-03-20T00:16:02.443Z,71.98
2019-03-20T00:18:33.203Z,71.94
2019-03-20T00:21:03.851Z,71.81
2019-03-20T00:23:34.708Z,71.62
2019-03-20T00:26:05.341Z,71.52
2019-03-20T00:28:36.099Z,71.55
2019-03-20T00:31:06.765Z,71.59
2019-03-20T00:33:37.621Z,71.59
2019-03-20T00:36:08.375Z,71.52
2019-03-20T00:38:39.116Z,71.53
2019-03-20T00:41:09.776Z,71.43
2019-03-20T00:43:40.619Z,71.45
2019-03-20T00:46:11.388Z,71.69
2019-03-20T00:48:42.124Z,72.01
2019-03-20T00:51:12.997Z,72.31
2019-03-20T00:53:43.853Z,72.68
2019-03-20T00:56:14.609Z,72.88
2019-03-20T00:58:45.262Z,72.78
2019-03-20T01:01:16.524Z,72.71
2019-03-20T01:03:47.261Z,72.91
2019-03-20T01:06:19.055Z,73.19
2019-03-20T01:08:49.400Z,73.33
2019-03-20T01:11:20.241Z,73.81
2019-03-20T01:13:51.115Z,74.53
2019-03-20T01:16:21.869Z,74.78
2019-03-20T01:18:52.503Z,74.73
2019-03-20T01:21:23.372Z,75.05
2019-03-20T01:23:54.227Z,74.90
2019-03-20T01:26:24.863Z,74.96
2019-03-20T01:28:54.941Z,74.78
2019-03-20T01:31:25.497Z,74.71
2019-03-20T01:33:56.120Z,74.88
2019-03-20T01:36:26.771Z,75.16
2019-03-20T01:38:57.633Z,75.50
2019-03-20T01:41:37.607Z,75.82
2019-03-20T01:44:00.449Z,75.98
2019-03-20T01:46:31.103Z,75.76
2019-03-20T01:49:01.971Z,75.86
2019-03-20T01:51:32.809Z,75.78
2019-03-20T01:54:03.583Z,75.68
2019-03-20T01:56:34.218Z,75.47
2019-03-20T01:59:04.968Z,75.32
2019-03-20T02:01:35.876Z,74.30
2019-03-20T02:04:06.596Z,75.27
2019-03-20T02:06:38.269Z,75.35
2019-03-20T02:09:08.720Z,75.81
2019-03-20T02:11:39.573Z,76.39
2019-03-20T02:14:10.432Z,77.33
2019-03-20T02:16:41.188Z,77.93
2019-03-20T02:19:11.836Z,78.25
2019-03-20T02:21:42.690Z,78.47
2019-03-20T02:24:13.549Z,78.68
2019-03-20T02:26:44.301Z,78.90
2019-03-20T02:29:14.837Z,78.28
2019-03-20T02:31:45.708Z,78.50
2019-03-20T02:34:16.465Z,78.57
2019-03-20T02:36:47.215Z,78.74
2019-03-20T02:39:17.868Z,79.04
2019-03-20T02:41:48.724Z,79.02
2019-03-20T02:44:19.477Z,79.22
2019-03-20T02:46:50.236Z,79.52
2019-03-20T02:49:21.087Z,79.93
2019-03-20T02:51:51.947Z,79.98
2019-03-20T02:54:22.681Z,80.09
2019-03-20T02:56:52.758Z,79.91
2019-03-20T02:59:23.287Z,79.81
2019-03-20T03:01:56.493Z,79.98
2019-03-20T03:04:27.246Z,80.09
2019-03-20T03:06:59.025Z,80.36
2019-03-20T03:09:29.351Z,80.39
2019-03-20T03:12:00.225Z,80.44
2019-03-20T03:14:31.080Z,80.37
2019-03-20T03:17:01.815Z,79.93
2019-03-20T03:19:49.488Z,79.83
2019-03-20T03:22:20.302Z,79.73
2019-03-20T03:24:51.190Z,79.20
2019-03-20T03:27:21.927Z,79.00
2019-03-20T03:29:52.462Z,79.33
2019-03-20T03:32:23.337Z,79.36
2019-03-20T03:34:54.089Z,79.59
2019-03-20T03:37:24.857Z,79.73
2019-03-20T03:39:55.372Z,80.29
2019-03-20T03:42:26.250Z,80.28
2019-03-20T03:44:57.006Z,80.32
2019-03-20T03:47:27.738Z,80.37
2019-03-20T03:49:58.289Z,80.35
2019-03-20T03:52:29.179Z,80.52
2019-03-20T03:54:59.933Z,80.46
2019-03-20T03:57:30.573Z,80.31
2019-03-20T04:00:01.228Z,80.30
2019-03-20T04:02:31.985Z,80.41
2019-03-20T04:05:02.830Z,80.50
2019-03-20T04:07:34.618Z,80.51
2019-03-20T04:10:08.330Z,80.28
2019-03-20T04:12:39.078Z,79.97
2019-03-20T04:15:16.543Z,79.21
2019-03-20T04:17:47.037Z,79.26
2019-03-20T04:20:18.720Z,79.51
2019-03-20T04:22:49.155Z,79.45
2019-03-20T04:25:19.791Z,79.10
2019-03-20T04:27:49.933Z,79.58
2019-03-20T04:30:20.599Z,79.02
2019-03-20T04:32:51.353Z,79.31
2019-03-20T04:35:22.194Z,79.16
2019-03-20T04:37:52.837Z,79.00
2019-03-20T04:40:23.589Z,79.08
2019-03-20T04:42:54.464Z,79.31
2019-03-20T04:45:25.321Z,79.29
2019-03-20T04:47:55.958Z,78.32
2019-03-20T04:50:26.033Z,77.78
2019-03-20T04:52:56.556Z,77.86
2019-03-20T04:55:26.611Z,77.43
2019-03-20T04:57:57.126Z,77.93
2019-03-20T05:00:27.902Z,77.64
2019-03-20T05:03:00.976Z,77.85
2019-03-20T05:05:30.836Z,78.39
2019-03-20T05:08:02.620Z,78.03
2019-03-20T05:10:33.370Z,78.26
2019-03-20T05:13:04.243Z,79.37
2019-03-20T05:15:34.074Z,79.03
2019-03-20T05:18:04.615Z,79.32
2019-03-20T05:20:35.346Z,79.42
2019-03-20T05:23:08.384Z,78.84
2019-03-20T05:25:38.300Z,79.14
2019-03-20T05:28:09.159Z,78.41
2019-03-20T05:30:39.914Z,77.24
2019-03-20T05:33:10.563Z,76.35
2019-03-20T05:35:41.418Z,76.84
2019-03-20T05:38:12.171Z,77.05
2019-03-20T05:40:42.924Z,75.85
2019-03-20T05:43:13.577Z,76.69
2019-03-20T05:45:44.436Z,76.57
2019-03-20T05:48:15.070Z,76.83
2019-03-20T05:50:45.839Z,77.59
2019-03-20T05:53:16.474Z,77.18
2019-03-20T05:55:47.226Z,77.24
2019-03-20T05:58:17.561Z,77.54
2019-03-20T06:00:47.899Z,76.87
2019-03-20T06:03:18.263Z,76.20
2019-03-20T06:05:49.035Z,75.79
2019-03-20T06:08:20.794Z,75.23
2019-03-20T06:10:51.565Z,75.58
2019-03-20T06:13:22.307Z,75.74
2019-03-20T06:15:53.172Z,76.82
2019-03-20T06:18:23.909Z,76.87
2019-03-20T06:20:54.581Z,76.91
2019-03-20T06:23:25.440Z,75.44
2019-03-20T06:25:56.296Z,74.95
2019-03-20T06:28:27.046Z,74.63
2019-03-20T06:30:57.693Z,74.51
2019-03-20T06:33:28.551Z,72.72
2019-03-20T06:35:59.304Z,73.98
2019-03-20T06:38:30.060Z,72.59
2019-03-20T06:41:00.912Z,72.43
2019-03-20T06:43:31.772Z,71.86
2019-03-20T06:46:02.408Z,71.94
2019-03-20T06:48:32.585Z,72.43
2019-03-20T06:51:03.112Z,71.95
2019-03-20T06:53:33.275Z,73.06
2019-03-20T06:56:03.802Z,73.50
2019-03-20T06:58:33.861Z,71.37
2019-03-20T07:01:16.251Z,71.61
2019-03-20T07:04:05.263Z,71.18
2019-03-20T07:06:51.306Z,71.95
2019-03-20T07:09:51.617Z,71.09
2019-03-20T07:12:22.253Z,70.40
2019-03-20T07:14:53.125Z,70.68
2019-03-20T07:17:23.779Z,71.28
2019-03-20T07:19:54.897Z,71.11
2019-03-20T07:22:25.594Z,70.39
2019-03-20T07:24:56.526Z,69.87
2019-03-20T07:27:26.998Z,69.88
2019-03-20T07:29:57.854Z,70.25
2019-03-20T07:32:30.057Z,68.84
2019-03-20T07:35:00.587Z,68.51
2019-03-20T07:37:33.648Z,68.51
2019-03-20T07:40:04.448Z,67.96
2019-03-20T07:42:35.307Z,67.53
2019-03-20T07:45:08.905Z,67.28
2019-03-20T07:47:39.247Z,67.82
2019-03-20T07:50:11.535Z,67.92
2019-03-20T07:52:42.189Z,66.33
2019-03-20T07:55:12.939Z,65.80
2019-03-20T07:57:43.818Z,65.40
2019-03-20T08:00:14.969Z,65.14
2019-03-20T08:02:45.716Z,64.15
2019-03-20T08:05:16.468Z,64.49
2019-03-20T08:07:47.340Z,65.10
2019-03-20T08:10:20.309Z,64.00
2019-03-20T08:12:50.792Z,62.50
2019-03-20T08:15:23.818Z,61.89
2019-03-20T08:17:54.447Z,62.84
2019-03-20T08:20:31.645Z,64.23
2019-03-20T08:23:02.500Z,64.58
2019-03-20T08:25:33.271Z,65.61
2019-03-20T08:28:04.009Z,64.84
2019-03-20T08:30:33.968Z,65.07
2019-03-20T08:33:04.504Z,65.51
2019-03-20T08:35:35.145Z,64.86
2019-03-20T08:38:17.422Z,65.57
2019-03-20T08:40:40.027Z,65.99
2019-03-20T08:43:10.889Z,67.22
2019-03-20T08:45:41.659Z,66.47
2019-03-20T08:48:12.491Z,65.29
2019-03-20T08:50:43.255Z,65.79
2019-03-20T08:53:13.900Z,65.86
2019-03-20T08:55:44.754Z,66.00
2019-03-20T08:58:15.511Z,64.51
2019-03-20T09:00:46.265Z,63.37
2019-03-20T09:03:17.120Z,64.71
2019-03-20T09:05:48.080Z,64.12
2019-03-20T09:08:28.817Z,64.00
2019-03-20T09:10:52.244Z,64.78
2019-03-20T09:13:23.000Z,63.88
2019-03-20T09:15:53.757Z,63.12
2019-03-20T09:18:23.814Z,61.92
2019-03-20T09:20:54.339Z,62.92
2019-03-20T09:23:24.991Z,62.44
2019-03-20T09:25:55.850Z,63.93
2019-03-20T09:28:26.601Z,64.09
2019-03-20T09:30:57.354Z,64.19
2019-03-20T09:33:28.211Z,64.14
2019-03-20T09:35:58.968Z,63.37
2019-03-20T09:38:29.620Z,63.44
2019-03-20T09:41:00.354Z,62.93
2019-03-20T09:43:30.797Z,62.16
2019-03-20T09:46:01.450Z,62.40
2019-03-20T09:48:32.105Z,62.03
2019-03-20T09:51:02.184Z,61.64
2019-03-20T09:53:32.691Z,60.82
2019-03-20T09:56:03.459Z,59.73
2019-03-20T09:58:34.320Z,59.22
2019-03-20T10:01:05.059Z,57.20
2019-03-20T10:03:35.706Z,57.25
2019-03-20T10:06:05.784Z,55.62
2019-03-20T10:08:36.297Z,57.67
2019-03-20T10:11:08.088Z,58.20
2019-03-20T10:13:38.723Z,57.48
2019-03-20T10:16:09.493Z,58.17
2019-03-20T10:18:40.350Z,58.50
2019-03-20T10:21:10.984Z,56.77
2019-03-20T10:23:41.756Z,55.47
2019-03-20T10:26:12.595Z,54.37
2019-03-20T10:28:43.261Z,54.67
2019-03-20T10:31:14.018Z,52.81
2019-03-20T10:33:44.771Z,51.95
2019-03-20T10:36:17.529Z,52.95
2019-03-20T10:38:48.795Z,52.69
2019-03-20T10:41:19.469Z,51.74
2019-03-20T10:43:52.259Z,50.16
2019-03-20T10:46:22.321Z,49.07
2019-03-20T10:48:52.956Z,49.16
2019-03-20T10:51:22.923Z,49.29
2019-03-20T10:53:53.445Z,49.10
2019-03-20T10:56:24.112Z,48.77
2019-03-20T10:58:54.866Z,48.50
2019-03-20T11:01:25.522Z,48.49
2019-03-20T11:03:56.375Z,48.89
2019-03-20T11:06:27.227Z,46.05
2019-03-20T11:08:57.686Z,46.88
2019-03-20T11:11:29.251Z,46.26
2019-03-20T11:14:00.004Z,47.69
2019-03-20T11:16:30.863Z,47.59
2019-03-20T11:19:01.720Z,46.04
2019-03-20T11:21:32.570Z,46.55
2019-03-20T11:24:03.203Z,45.64
2019-03-20T11:26:33.866Z,45.37
2019-03-20T11:29:04.529Z,46.06
2019-03-20T11:31:35.381Z,45.03
2019-03-20T11:34:06.013Z,44.88
2019-03-20T11:36:36.791Z,44.82
2019-03-20T11:39:09.250Z,44.61
2019-03-20T11:41:39.604Z,42.62
2019-03-20T11:44:10.481Z,44.45
2019-03-20T11:46:41.232Z,47.20
2019-03-20T11:49:11.867Z,47.87
2019-03-20T11:51:45.607Z,46.99
2019-03-20T11:54:16.360Z,46.04
2019-03-20T11:56:47.012Z,43.37
2019-03-20T11:59:17.874Z,41.55
2019-03-20T12:01:48.500Z,42.09
2019-03-20T12:04:19.276Z,40.08
2019-03-20T12:06:49.936Z,40.92
2019-03-20T12:09:20.779Z,41.70
2019-03-20T12:11:51.637Z,42.89
2019-03-20T12:14:22.492Z,40.97
2019-03-20T12:16:53.144Z,40.72
2019-03-20T12:19:24.002Z,40.24
2019-03-20T12:21:55.043Z,41.07
2019-03-20T12:24:25.802Z,39.36
2019-03-20T12:26:56.676Z,38.69
2019-03-20T12:29:27.526Z,39.27
2019-03-20T12:31:58.381Z,38.91
2019-03-20T12:34:29.135Z,38.91
2019-03-20T12:36:59.788Z,39.36
2019-03-20T12:39:30.524Z,39.36
2019-03-20T12:42:01.277Z,38.91
2019-03-20T12:44:32.053Z,38.72
2019-03-20T12:47:02.701Z,40.00
2019-03-20T12:49:33.559Z,41.17
2019-03-20T12:52:04.417Z,42.19
2019-03-20T12:54:35.168Z,42.28
2019-03-20T12:57:05.817Z,41.58
2019-03-20T12:59:36.674Z,41.91
2019-03-20T13:02:08.299Z,42.38
2019-03-20T13:04:38.880Z,43.12
2019-03-20T13:07:09.652Z,43.21
2019-03-20T13:09:40.409Z,42.85
2019-03-20T13:12:12.062Z,43.01
2019-03-20T13:14:42.525Z,43.52
2019-03-20T13:17:13.382Z,43.19
2019-03-20T13:19:44.120Z,43.33
2019-03-20T13:22:14.993Z,43.16
2019-03-20T13:24:45.749Z,43.99
2019-03-20T13:27:16.404Z,43.30
2019-03-20T13:29:47.237Z,43.56
2019-03-20T13:32:18.020Z,42.07
2019-03-20T13:34:48.762Z,43.34
2019-03-20T13:37:19.401Z,42.71
2019-03-20T13:39:50.273Z,42.52
2019-03-20T13:42:21.023Z,43.35
2019-03-20T13:44:51.881Z,42.86
2019-03-20T13:47:22.737Z,44.60
2019-03-20T13:49:53.593Z,44.05
2019-03-20T13:52:24.225Z,45.10
2019-03-20T13:54:54.897Z,44.82
2019-03-20T13:57:25.753Z,43.57
2019-03-20T13:59:56.507Z,43.54
2019-03-20T14:02:27.260Z,44.03
2019-03-20T14:04:57.913Z,44.12
2019-03-20T14:07:28.766Z,44.67
2019-03-20T14:09:59.522Z,44.79
2019-03-20T14:12:33.416Z,44.83
2019-03-20T14:15:03.261Z,44.76
2019-03-20T14:17:34.239Z,45.08
2019-03-20T14:20:08.061Z,45.03
2019-03-20T14:22:38.799Z,44.71
2019-03-20T14:25:11.103Z,45.69
2019-03-20T14:27:41.427Z,46.34
2019-03-20T14:30:17.784Z,45.94
2019-03-20T14:32:48.155Z,44.95
2019-03-20T14:35:18.924Z,45.20
2019-03-20T14:37:49.719Z,45.73
2019-03-20T14:40:23.490Z,45.52
2019-03-20T14:42:54.016Z,46.51
2019-03-20T14:45:24.808Z,46.63
2019-03-20T14:47:56.158Z,47.59
2019-03-20T14:50:31.309Z,47.34
2019-03-20T14:53:01.673Z,47.38
2019-03-20T18:51:56.797Z,66.93
2019-03-20T18:54:27.568Z,66.82
2019-03-20T18:56:58.325Z,67.08
2019-03-20T18:59:28.973Z,67.31
2019-03-20T19:01:59.828Z,67.60
2019-03-20T19:04:30.590Z,67.67
2019-03-20T19:07:01.338Z,67.78
2019-03-20T19:09:32.307Z,67.93
2019-03-20T19:12:08.522Z,68.00
2019-03-20T19:14:35.234Z,68.22
2019-03-20T19:17:05.889Z,68.35
2019-03-20T19:19:36.745Z,68.33
2019-03-20T19:22:07.814Z,68.33
2019-03-20T19:24:38.438Z,68.56
2019-03-20T19:27:08.407Z,68.84
2019-03-20T19:29:38.923Z,68.87
2019-03-20T19:32:09.694Z,68.98
2019-03-20T19:34:40.430Z,69.06
2019-03-20T19:37:11.306Z,69.18
2019-03-20T19:39:44.818Z,69.37
2019-03-20T19:42:20.223Z,69.46
2019-03-20T19:44:49.189Z,69.40
2019-03-20T19:47:20.047Z,69.33
2019-03-20T19:49:50.799Z,69.38
2019-03-20T19:52:21.657Z,69.54
2019-03-20T19:54:53.431Z,69.55
2019-03-20T19:57:23.881Z,69.81
2019-03-20T19:59:54.735Z,69.95
2019-03-20T20:02:25.592Z,70.00
2019-03-20T20:04:56.229Z,70.02
2019-03-20T20:07:26.305Z,69.98
2019-03-20T20:09:56.831Z,69.89
2019-03-20T20:12:31.390Z,69.84
2019-03-20T20:14:59.770Z,69.76
2019-03-20T20:17:30.609Z,69.40
2019-03-20T20:20:01.383Z,69.42
2019-03-20T20:22:32.136Z,69.54
2019-03-20T20:25:02.992Z,69.58
2019-03-20T20:27:33.748Z,69.49
2019-03-20T20:30:07.057Z,69.49
2019-03-20T20:32:37.810Z,69.22
2019-03-20T20:35:10.098Z,69.09
2019-03-20T20:37:40.549Z,69.21
2019-03-20T20:40:29.093Z,68.87
2019-03-20T20:42:59.949Z,68.68
2019-03-20T20:45:30.601Z,67.99
2019-03-20T20:48:01.462Z,67.95
2019-03-20T20:50:32.222Z,67.83
2019-03-20T20:53:02.998Z,67.57
2019-03-20T20:55:33.926Z,67.62
2019-03-20T20:58:04.781Z,67.61
2019-03-20T21:00:35.553Z,67.45
2019-03-20T21:03:06.168Z,67.78
2019-03-20T21:05:37.450Z,67.87
2019-03-20T21:08:08.185Z,67.99
2019-03-20T21:10:38.840Z,67.89
2019-03-20T21:13:09.711Z,68.06
2019-03-20T21:15:45.479Z,68.11
2019-03-20T21:18:35.134Z,68.24
2019-03-20T21:21:05.908Z,68.28
2019-03-20T21:23:59.260Z,68.29
2019-03-20T21:26:35.679Z,68.29
2019-03-20T21:29:35.340Z,68.33
2019-03-20T21:32:15.195Z,68.28
2019-03-20T21:35:22.566Z,68.57
2019-03-20T21:38:10.805Z,68.43
2019-03-20T21:41:02.526Z,68.73
2019-03-20T21:44:00.572Z,68.76
2019-03-20T21:46:49.528Z,68.90
2019-03-20T21:49:20.206Z,68.65
2019-03-20T21:51:50.833Z,68.59
2019-03-20T21:54:50.632Z,68.71
2019-03-20T21:57:28.883Z,68.95
2019-03-20T22:00:14.438Z,69.36
2019-03-20T22:02:45.499Z,69.58
2019-03-20T22:05:53.812Z,69.61
2019-03-20T22:08:24.561Z,69.53
2019-03-20T22:11:17.609Z,69.40
2019-03-20T22:13:51.429Z,69.47
2019-03-20T22:16:43.439Z,69.39
2019-03-20T22:19:50.503Z,69.46
2019-03-20T22:22:42.545Z,69.33
2019-03-20T22:25:19.017Z,69.37
2019-03-20T22:27:55.591Z,69.48
2019-03-20T22:30:26.261Z,69.56
2019-03-20T22:33:05.797Z,69.47
2019-03-20T22:35:39.722Z,69.48
2019-03-20T22:38:13.561Z,69.76
2019-03-20T22:41:05.487Z,69.79
2019-03-20T22:43:40.842Z,69.76
2019-03-20T22:46:31.537Z,69.68
2019-03-20T22:49:06.407Z,69.71
2019-03-20T22:52:01.375Z,69.65
2019-03-20T22:54:43.381Z,69.89
2019-03-20T22:57:44.509Z,70.06
2019-03-20T23:00:18.564Z,70.22
2019-03-20T23:02:52.040Z,70.44
2019-03-20T23:05:24.337Z,70.60
2019-03-20T23:07:55.097Z,70.71
2019-03-20T23:10:25.744Z,70.88
2019-03-20T23:12:56.604Z,70.98
2019-03-20T23:15:27.235Z,70.91
2019-03-20T23:17:58.008Z,70.84
2019-03-20T23:20:29.253Z,71.10
2019-03-20T23:23:00.033Z,70.99
2019-03-20T23:25:30.865Z,71.00
2019-03-20T23:28:01.742Z,71.07
2019-03-20T23:30:34.214Z,71.12
2019-03-20T23:33:04.778Z,71.20
2019-03-20T23:35:34.635Z,71.26
2019-03-20T23:38:05.162Z,71.37
2019-03-20T23:40:36.208Z,71.41
2019-03-20T23:43:10.289Z,71.30
2019-03-20T23:45:40.986Z,71.52
2019-03-20T23:48:24.851Z,71.48
2019-03-20T23:51:07.570Z,71.86
2019-03-20T23:53:39.119Z,72.01
2019-03-20T23:56:09.898Z,71.88
2019-03-20T23:58:41.551Z,71.89
